sensor_id;sensor_type;location;lat;lon;timestamp;pressure;altitude;pressure_sealevel;temperature;humidity
47726;BME280;33483;48.294;16.388;2023-07-13T00:00:58;99294.41;;;20.30;100.00
47726;BME280;33483;48.294;16.388;2023-07-13T00:03:40;99294.13;;;20.26;100.00
47726;BME280;33483;48.294;16.388;2023-07-13T00:06:08;99291.91;;;20.25;100.00
47726;BME280;33483;48.294;16.388;2023-07-13T00:08:36;99300.63;;;20.29;100.00
47726;BME280;33483;48.294;16.388;2023-07-13T00:11:03;99283.75;;;20.29;100.00
47726;BME280;33483;48.294;16.388;2023-07-13T00:13:31;99273.09;;;20.27;100.00
47726;BME280;33483;48.294;16.388;2023-07-13T00:15:58;99266.25;;;20.30;100.00
47726;BME280;33483;48.294;16.388;2023-07-13T00:18:26;99263.16;;;20.26;100.00
47726;BME280;33483;48.294;16.388;2023-07-13T00:20:57;99265.72;;;20.22;100.00
47726;BME280;33483;48.294;16.388;2023-07-13T00:23:33;99256.81;;;20.26;100.00
47726;BME280;33483;48.294;16.388;2023-07-13T00:26:04;99264.38;;;20.23;100.00
47726;BME280;33483;48.294;16.388;2023-07-13T00:28:35;99246.34;;;20.17;100.00
47726;BME280;33483;48.294;16.388;2023-07-13T00:31:03;99238.28;;;20.23;100.00
47726;BME280;33483;48.294;16.388;2023-07-13T00:33:35;99230.88;;;20.27;100.00
47726;BME280;33483;48.294;16.388;2023-07-13T00:36:02;99244.00;;;20.34;100.00
47726;BME280;33483;48.294;16.388;2023-07-13T00:38:30;99237.16;;;20.37;100.00
47726;BME280;33483;48.294;16.388;2023-07-13T00:40:58;99236.44;;;20.37;100.00
47726;BME280;33483;48.294;16.388;2023-07-13T00:43:26;99243.53;;;20.38;100.00
47726;BME280;33483;48.294;16.388;2023-07-13T00:48:29;99237.44;;;20.41;100.00
47726;BME280;33483;48.294;16.388;2023-07-13T00:50:58;99245.56;;;20.47;100.00
47726;BME280;33483;48.294;16.388;2023-07-13T00:53:27;99234.31;;;20.47;100.00
47726;BME280;33483;48.294;16.388;2023-07-13T00:55:55;99233.28;;;20.42;100.00
47726;BME280;33483;48.294;16.388;2023-07-13T00:58:24;99220.81;;;20.45;100.00
47726;BME280;33483;48.294;16.388;2023-07-13T01:00:52;99216.19;;;20.50;100.00
47726;BME280;33483;48.294;16.388;2023-07-13T01:03:20;99217.66;;;20.51;100.00
47726;BME280;33483;48.294;16.388;2023-07-13T01:05:51;99203.97;;;20.57;100.00
47726;BME280;33483;48.294;16.388;2023-07-13T01:08:21;99197.28;;;20.62;100.00
47726;BME280;33483;48.294;16.388;2023-07-13T01:10:56;99193.22;;;20.65;100.00
47726;BME280;33483;48.294;16.388;2023-07-13T01:13:23;99182.09;;;20.67;100.00
47726;BME280;33483;48.294;16.388;2023-07-13T01:15:51;99185.44;;;20.75;100.00
47726;BME280;33483;48.294;16.388;2023-07-13T01:18:21;99189.25;;;20.79;100.00
47726;BME280;33483;48.294;16.388;2023-07-13T01:20:59;99186.72;;;20.83;100.00
47726;BME280;33483;48.294;16.388;2023-07-13T01:23:27;99181.78;;;20.84;100.00
47726;BME280;33483;48.294;16.388;2023-07-13T01:25:55;99190.25;;;20.84;100.00
47726;BME280;33483;48.294;16.388;2023-07-13T01:28:23;99200.41;;;20.89;100.00
47726;BME280;33483;48.294;16.388;2023-07-13T01:30:54;99202.88;;;20.94;100.00
47726;BME280;33483;48.294;16.388;2023-07-13T01:33:22;99194.63;;;21.08;100.00
47726;BME280;33483;48.294;16.388;2023-07-13T01:35:49;99202.00;;;21.13;100.00
47726;BME280;33483;48.294;16.388;2023-07-13T01:38:17;99185.22;;;21.27;100.00
47726;BME280;33483;48.294;16.388;2023-07-13T01:40:46;99191.25;;;21.44;100.00
47726;BME280;33483;48.294;16.388;2023-07-13T01:43:13;99191.38;;;21.46;100.00
47726;BME280;33483;48.294;16.388;2023-07-13T01:45:44;99190.53;;;21.44;100.00
47726;BME280;33483;48.294;16.388;2023-07-13T01:48:12;99189.78;;;21.43;100.00
47726;BME280;33483;48.294;16.388;2023-07-13T01:50:41;99193.34;;;21.44;100.00
47726;BME280;33483;48.294;16.388;2023-07-13T01:53:08;99184.41;;;21.47;100.00
47726;BME280;33483;48.294;16.388;2023-07-13T01:55:37;99179.59;;;21.50;100.00
47726;BME280;33483;48.294;16.388;2023-07-13T01:58:04;99180.72;;;21.56;100.00
47726;BME280;33483;48.294;16.388;2023-07-13T02:00:34;99170.91;;;21.57;100.00
47726;BME280;33483;48.294;16.388;2023-07-13T02:03:01;99172.13;;;21.54;100.00
47726;BME280;33483;48.294;16.388;2023-07-13T02:05:31;99183.78;;;21.60;100.00
47726;BME280;33483;48.294;16.388;2023-07-13T02:07:58;99183.91;;;21.62;100.00
47726;BME280;33483;48.294;16.388;2023-07-13T02:10:25;99184.63;;;21.63;100.00
47726;BME280;33483;48.294;16.388;2023-07-13T02:12:53;99184.50;;;21.61;100.00
47726;BME280;33483;48.294;16.388;2023-07-13T02:15:20;99198.72;;;21.74;100.00
47726;BME280;33483;48.294;16.388;2023-07-13T02:17:47;99200.72;;;21.95;100.00
47726;BME280;33483;48.294;16.388;2023-07-13T02:20:17;99189.53;;;21.97;100.00
47726;BME280;33483;48.294;16.388;2023-07-13T02:22:44;99200.09;;;22.08;100.00
47726;BME280;33483;48.294;16.388;2023-07-13T02:25:11;99204.63;;;22.13;100.00
47726;BME280;33483;48.294;16.388;2023-07-13T02:27:38;99211.84;;;22.16;100.00
47726;BME280;33483;48.294;16.388;2023-07-13T02:30:06;99230.84;;;22.27;100.00
47726;BME280;33483;48.294;16.388;2023-07-13T02:32:34;99241.78;;;22.32;100.00
47726;BME280;33483;48.294;16.388;2023-07-13T02:35:02;99264.44;;;22.46;100.00
47726;BME280;33483;48.294;16.388;2023-07-13T02:37:30;99274.41;;;22.47;100.00
47726;BME280;33483;48.294;16.388;2023-07-13T02:39:57;99284.34;;;22.48;100.00
47726;BME280;33483;48.294;16.388;2023-07-13T02:42:24;99290.88;;;22.51;100.00
47726;BME280;33483;48.294;16.388;2023-07-13T02:44:57;99322.66;;;22.51;100.00
47726;BME280;33483;48.294;16.388;2023-07-13T02:47:25;99329.16;;;22.54;100.00
47726;BME280;33483;48.294;16.388;2023-07-13T02:49:52;99333.09;;;22.49;100.00
47726;BME280;33483;48.294;16.388;2023-07-13T02:52:20;99342.06;;;22.45;100.00
47726;BME280;33483;48.294;16.388;2023-07-13T02:54:47;99354.97;;;22.37;100.00
47726;BME280;33483;48.294;16.388;2023-07-13T02:57:14;99368.84;;;22.32;100.00
47726;BME280;33483;48.294;16.388;2023-07-13T02:59:43;99364.28;;;22.27;100.00
47726;BME280;33483;48.294;16.388;2023-07-13T03:02:11;99375.06;;;22.19;100.00
47726;BME280;33483;48.294;16.388;2023-07-13T03:04:38;99384.78;;;22.16;100.00
47726;BME280;33483;48.294;16.388;2023-07-13T03:07:07;99373.97;;;22.01;100.00
47726;BME280;33483;48.294;16.388;2023-07-13T03:09:39;99387.19;;;21.87;100.00
47726;BME280;33483;48.294;16.388;2023-07-13T03:12:08;99394.88;;;21.75;100.00
47726;BME280;33483;48.294;16.388;2023-07-13T03:14:35;99392.63;;;21.62;100.00
47726;BME280;33483;48.294;16.388;2023-07-13T03:17:05;99401.91;;;21.53;100.00
47726;BME280;33483;48.294;16.388;2023-07-13T03:19:36;99401.13;;;21.41;100.00
47726;BME280;33483;48.294;16.388;2023-07-13T03:22:04;99411.88;;;21.33;100.00
47726;BME280;33483;48.294;16.388;2023-07-13T03:24:32;99405.72;;;21.25;100.00
47726;BME280;33483;48.294;16.388;2023-07-13T03:27:03;99414.56;;;21.10;100.00
47726;BME280;33483;48.294;16.388;2023-07-13T03:29:31;99413.44;;;21.03;100.00
47726;BME280;33483;48.294;16.388;2023-07-13T03:31:59;99414.41;;;20.87;100.00
47726;BME280;33483;48.294;16.388;2023-07-13T03:34:26;99420.69;;;20.76;100.00
47726;BME280;33483;48.294;16.388;2023-07-13T03:36:54;99421.66;;;20.59;100.00
47726;BME280;33483;48.294;16.388;2023-07-13T03:39:21;99421.28;;;20.44;100.00
47726;BME280;33483;48.294;16.388;2023-07-13T03:41:53;99428.44;;;20.35;100.00
47726;BME280;33483;48.294;16.388;2023-07-13T03:44:21;99419.47;;;20.17;100.00
47726;BME280;33483;48.294;16.388;2023-07-13T03:46:55;99425.56;;;20.04;100.00
47726;BME280;33483;48.294;16.388;2023-07-13T03:49:22;99424.09;;;19.94;100.00
47726;BME280;33483;48.294;16.388;2023-07-13T03:51:50;99416.28;;;19.83;100.00
47726;BME280;33483;48.294;16.388;2023-07-13T03:54:20;99414.81;;;19.72;100.00
47726;BME280;33483;48.294;16.388;2023-07-13T03:56:47;99417.19;;;19.66;100.00
47726;BME280;33483;48.294;16.388;2023-07-13T03:59:18;99409.66;;;19.59;100.00
47726;BME280;33483;48.294;16.388;2023-07-13T04:01:45;99417.78;;;19.55;100.00
47726;BME280;33483;48.294;16.388;2023-07-13T04:04:13;99405.66;;;19.43;100.00
47726;BME280;33483;48.294;16.388;2023-07-13T04:06:40;99406.97;;;19.42;100.00
47726;BME280;33483;48.294;16.388;2023-07-13T04:09:11;99412.03;;;19.34;100.00
47726;BME280;33483;48.294;16.388;2023-07-13T04:11:38;99403.44;;;19.32;100.00
47726;BME280;33483;48.294;16.388;2023-07-13T04:14:05;99407.00;;;19.33;100.00
47726;BME280;33483;48.294;16.388;2023-07-13T04:16:34;99408.00;;;19.28;100.00
47726;BME280;33483;48.294;16.388;2023-07-13T04:19:01;99419.69;;;19.24;100.00
47726;BME280;33483;48.294;16.388;2023-07-13T04:21:29;99421.16;;;19.25;100.00
47726;BME280;33483;48.294;16.388;2023-07-13T04:23:59;99416.72;;;19.22;100.00
47726;BME280;33483;48.294;16.388;2023-07-13T04:26:26;99414.97;;;19.17;100.00
47726;BME280;33483;48.294;16.388;2023-07-13T04:28:53;99414.81;;;19.15;100.00
47726;BME280;33483;48.294;16.388;2023-07-13T04:31:21;99418.19;;;19.14;100.00
47726;BME280;33483;48.294;16.388;2023-07-13T04:33:48;99411.69;;;19.11;100.00
47726;BME280;33483;48.294;16.388;2023-07-13T04:36:16;99409.47;;;19.09;100.00
47726;BME280;33483;48.294;16.388;2023-07-13T04:38:43;99403.84;;;19.09;100.00
47726;BME280;33483;48.294;16.388;2023-07-13T04:41:10;99403.84;;;19.09;100.00
47726;BME280;33483;48.294;16.388;2023-07-13T04:43:37;99396.91;;;19.11;100.00
47726;BME280;33483;48.294;16.388;2023-07-13T04:46:06;99392.16;;;19.13;100.00
47726;BME280;33483;48.294;16.388;2023-07-13T04:48:34;99375.78;;;19.19;100.00
47726;BME280;33483;48.294;16.388;2023-07-13T04:51:01;99368.97;;;19.22;100.00
47726;BME280;33483;48.294;16.388;2023-07-13T04:53:28;99357.56;;;19.20;100.00
47726;BME280;33483;48.294;16.388;2023-07-13T04:55:56;99343.97;;;19.26;100.00
47726;BME280;33483;48.294;16.388;2023-07-13T04:58:24;99341.00;;;19.24;100.00
47726;BME280;33483;48.294;16.388;2023-07-13T05:00:51;99329.47;;;19.20;100.00
47726;BME280;33483;48.294;16.388;2023-07-13T05:03:18;99328.59;;;19.27;100.00
47726;BME280;33483;48.294;16.388;2023-07-13T05:05:59;99314.53;;;19.27;100.00
47726;BME280;33483;48.294;16.388;2023-07-13T05:08:26;99304.50;;;19.34;100.00
47726;BME280;33483;48.294;16.388;2023-07-13T05:10:54;99295.00;;;19.39;100.00
47726;BME280;33483;48.294;16.388;2023-07-13T05:13:21;99288.47;;;19.46;100.00
47726;BME280;33483;48.294;16.388;2023-07-13T05:15:55;99284.78;;;19.53;100.00
47726;BME280;33483;48.294;16.388;2023-07-13T05:18:23;99286.81;;;19.62;100.00
47726;BME280;33483;48.294;16.388;2023-07-13T05:21:03;99294.94;;;19.67;100.00
47726;BME280;33483;48.294;16.388;2023-07-13T05:23:31;99298.91;;;19.74;100.00
47726;BME280;33483;48.294;16.388;2023-07-13T05:25:59;99290.75;;;19.78;100.00
47726;BME280;33483;48.294;16.388;2023-07-13T05:28:26;99295.94;;;19.81;100.00
47726;BME280;33483;48.294;16.388;2023-07-13T05:30:55;99291.75;;;19.92;100.00
47726;BME280;33483;48.294;16.388;2023-07-13T05:33:22;99292.91;;;19.98;100.00
47726;BME280;33483;48.294;16.388;2023-07-13T05:35:50;99289.03;;;20.03;100.00
47726;BME280;33483;48.294;16.388;2023-07-13T05:38:17;99290.66;;;20.06;100.00
47726;BME280;33483;48.294;16.388;2023-07-13T05:40:45;99298.03;;;20.11;100.00
47726;BME280;33483;48.294;16.388;2023-07-13T05:43:15;99304.72;;;20.06;100.00
47726;BME280;33483;48.294;16.388;2023-07-13T05:45:42;99315.22;;;20.06;100.00
47726;BME280;33483;48.294;16.388;2023-07-13T05:48:09;99322.53;;;19.99;100.00
47726;BME280;33483;48.294;16.388;2023-07-13T05:50:37;99337.91;;;19.98;100.00
47726;BME280;33483;48.294;16.388;2023-07-13T05:53:06;99340.31;;;19.92;100.00
47726;BME280;33483;48.294;16.388;2023-07-13T05:55:33;99335.88;;;19.89;100.00
47726;BME280;33483;48.294;16.388;2023-07-13T05:58:01;99337.34;;;19.90;100.00
47726;BME280;33483;48.294;16.388;2023-07-13T06:00:28;99342.69;;;19.86;100.00
47726;BME280;33483;48.294;16.388;2023-07-13T06:02:55;99341.50;;;19.89;100.00
47726;BME280;33483;48.294;16.388;2023-07-13T06:05:24;99356.00;;;19.86;100.00
47726;BME280;33483;48.294;16.388;2023-07-13T06:07:51;99355.16;;;19.83;100.00
47726;BME280;33483;48.294;16.388;2023-07-13T06:10:18;99362.84;;;19.83;100.00
47726;BME280;33483;48.294;16.388;2023-07-13T06:12:45;99360.75;;;19.83;100.00
47726;BME280;33483;48.294;16.388;2023-07-13T06:15:13;99359.41;;;19.84;100.00
47726;BME280;33483;48.294;16.388;2023-07-13T06:17:45;99360.47;;;19.79;100.00
47726;BME280;33483;48.294;16.388;2023-07-13T06:20:12;99374.97;;;19.85;100.00
47726;BME280;33483;48.294;16.388;2023-07-13T06:22:39;99371.25;;;19.92;100.00
47726;BME280;33483;48.294;16.388;2023-07-13T06:25:06;99374.22;;;19.94;100.00
47726;BME280;33483;48.294;16.388;2023-07-13T06:27:33;99377.03;;;19.94;100.00
47726;BME280;33483;48.294;16.388;2023-07-13T06:30:01;99382.50;;;19.92;100.00
47726;BME280;33483;48.294;16.388;2023-07-13T06:32:28;99384.25;;;19.97;100.00
47726;BME280;33483;48.294;16.388;2023-07-13T06:34:55;99385.88;;;20.00;100.00
47726;BME280;33483;48.294;16.388;2023-07-13T06:37:22;99384.25;;;19.97;100.00
47726;BME280;33483;48.294;16.388;2023-07-13T06:39:50;99389.44;;;20.01;100.00
47726;BME280;33483;48.294;16.388;2023-07-13T06:42:17;99388.25;;;20.04;100.00
47726;BME280;33483;48.294;16.388;2023-07-13T06:44:44;99398.03;;;20.03;100.00
47726;BME280;33483;48.294;16.388;2023-07-13T06:47:12;99406.72;;;20.07;100.00
47726;BME280;33483;48.294;16.388;2023-07-13T06:49:41;99412.19;;;20.14;100.00
47726;BME280;33483;48.294;16.388;2023-07-13T06:52:08;99417.09;;;20.24;100.00
47726;BME280;33483;48.294;16.388;2023-07-13T06:54:43;99414.53;;;20.28;100.00
47726;BME280;33483;48.294;16.388;2023-07-13T06:57:10;99414.47;;;20.47;100.00
47726;BME280;33483;48.294;16.388;2023-07-13T06:59:38;99410.50;;;20.71;100.00
47726;BME280;33483;48.294;16.388;2023-07-13T07:02:05;99426.97;;;20.95;100.00
47726;BME280;33483;48.294;16.388;2023-07-13T07:04:32;99418.88;;;21.11;100.00
47726;BME280;33483;48.294;16.388;2023-07-13T07:06:59;99434.28;;;21.10;100.00
47726;BME280;33483;48.294;16.388;2023-07-13T07:09:27;99425.66;;;21.17;100.00
47726;BME280;33483;48.294;16.388;2023-07-13T07:11:56;99425.19;;;21.21;100.00
47726;BME280;33483;48.294;16.388;2023-07-13T07:14:30;99422.28;;;21.31;100.00
47726;BME280;33483;48.294;16.388;2023-07-13T07:16:57;99427.31;;;21.32;100.00
47726;BME280;33483;48.294;16.388;2023-07-13T07:19:27;99430.53;;;21.38;100.00
47726;BME280;33483;48.294;16.388;2023-07-13T07:21:54;99429.16;;;21.60;100.00
47726;BME280;33483;48.294;16.388;2023-07-13T07:24:21;99431.41;;;21.73;100.00
47726;BME280;33483;48.294;16.388;2023-07-13T07:26:50;99430.66;;;21.73;100.00
47726;BME280;33483;48.294;16.388;2023-07-13T07:29:21;99427.00;;;21.70;100.00
47726;BME280;33483;48.294;16.388;2023-07-13T07:31:52;99417.78;;;21.70;100.00
47726;BME280;33483;48.294;16.388;2023-07-13T07:34:31;99420.41;;;21.77;100.00
47726;BME280;33483;48.294;16.388;2023-07-13T07:36:59;99414.50;;;21.73;100.00
47726;BME280;33483;48.294;16.388;2023-07-13T07:39:32;99424.09;;;21.80;100.00
47726;BME280;33483;48.294;16.388;2023-07-13T07:42:00;99424.84;;;21.80;100.00
47726;BME280;33483;48.294;16.388;2023-07-13T07:44:27;99420.66;;;21.81;100.00
47726;BME280;33483;48.294;16.388;2023-07-13T07:46:55;99419.69;;;21.88;100.00
47726;BME280;33483;48.294;16.388;2023-07-13T07:49:23;99418.72;;;21.84;100.00
47726;BME280;33483;48.294;16.388;2023-07-13T07:51:53;99422.19;;;21.94;100.00
47726;BME280;33483;48.294;16.388;2023-07-13T07:54:20;99424.66;;;22.11;100.00
47726;BME280;33483;48.294;16.388;2023-07-13T07:57:07;99426.25;;;22.02;100.00
47726;BME280;33483;48.294;16.388;2023-07-13T07:59:39;99432.16;;;22.06;100.00
47726;BME280;33483;48.294;16.388;2023-07-13T08:02:12;99424.81;;;22.24;100.00
47726;BME280;33483;48.294;16.388;2023-07-13T08:04:59;99424.47;;;22.42;100.00
47726;BME280;33483;48.294;16.388;2023-07-13T08:07:32;99429.66;;;22.57;100.00
47726;BME280;33483;48.294;16.388;2023-07-13T08:10:00;99427.66;;;22.48;100.00
47726;BME280;33483;48.294;16.388;2023-07-13T08:12:27;99439.47;;;22.56;100.00
47726;BME280;33483;48.294;16.388;2023-07-13T08:14:57;99440.69;;;22.76;100.00
47726;BME280;33483;48.294;16.388;2023-07-13T08:17:24;99436.69;;;23.27;100.00
47726;BME280;33483;48.294;16.388;2023-07-13T08:19:52;99448.16;;;24.16;100.00
47726;BME280;33483;48.294;16.388;2023-07-13T08:22:19;99440.50;;;24.71;100.00
47726;BME280;33483;48.294;16.388;2023-07-13T08:24:47;99449.34;;;25.60;100.00
47726;BME280;33483;48.294;16.388;2023-07-13T08:27:22;99450.56;;;26.91;100.00
47726;BME280;33483;48.294;16.388;2023-07-13T08:29:50;99444.41;;;28.72;96.33
47726;BME280;33483;48.294;16.388;2023-07-13T08:32:19;99451.72;;;29.79;75.17
47726;BME280;33483;48.294;16.388;2023-07-13T08:34:47;99455.72;;;31.12;65.33
47726;BME280;33483;48.294;16.388;2023-07-13T08:37:15;99462.72;;;31.07;55.70
47726;BME280;33483;48.294;16.388;2023-07-13T08:39:46;99463.13;;;30.01;58.17
47726;BME280;33483;48.294;16.388;2023-07-13T08:47:43;99464.00;;;28.08;66.84
47726;BME280;33483;48.294;16.388;2023-07-13T08:50:15;99460.47;;;27.39;69.37
47726;BME280;33483;48.294;16.388;2023-07-13T08:52:43;99460.22;;;29.15;64.50
47726;BME280;33483;48.294;16.388;2023-07-13T08:55:15;99454.81;;;28.84;62.86
47726;BME280;33483;48.294;16.388;2023-07-13T08:57:43;99467.31;;;28.94;61.06
47726;BME280;33483;48.294;16.388;2023-07-13T09:00:12;99452.06;;;28.88;61.56
47726;BME280;33483;48.294;16.388;2023-07-13T09:02:52;99458.19;;;29.39;58.74
47726;BME280;33483;48.294;16.388;2023-07-13T09:05:31;99457.78;;;28.88;60.16
47726;BME280;33483;48.294;16.388;2023-07-13T09:10:43;99480.22;;;29.36;57.86
47726;BME280;33483;48.294;16.388;2023-07-13T09:13:18;99492.09;;;30.13;54.58
47726;BME280;33483;48.294;16.388;2023-07-13T09:15:47;99496.69;;;30.69;53.64
47726;BME280;33483;48.294;16.388;2023-07-13T09:23:27;99495.19;;;33.29;46.41
47726;BME280;33483;48.294;16.388;2023-07-13T09:26:39;99493.22;;;32.37;46.59
47726;BME280;33483;48.294;16.388;2023-07-13T09:28:48;99486.84;;;30.27;52.77
47726;BME280;33483;48.294;16.388;2023-07-13T09:31:19;99480.63;;;30.58;52.17
47726;BME280;33483;48.294;16.388;2023-07-13T09:33:49;99477.69;;;30.09;53.45
47726;BME280;33483;48.294;16.388;2023-07-13T09:36:51;99477.25;;;30.89;53.64
47726;BME280;33483;48.294;16.388;2023-07-13T09:39:15;99475.09;;;31.69;50.20
47726;BME280;33483;48.294;16.388;2023-07-13T09:42:00;99476.28;;;32.17;48.85
47726;BME280;33483;48.294;16.388;2023-07-13T09:44:35;99482.34;;;32.96;47.39
47726;BME280;33483;48.294;16.388;2023-07-13T09:47:03;99482.41;;;31.46;47.98
47726;BME280;33483;48.294;16.388;2023-07-13T09:49:34;99481.28;;;29.88;52.16
47726;BME280;33483;48.294;16.388;2023-07-13T09:52:07;99482.94;;;31.13;48.99
47726;BME280;33483;48.294;16.388;2023-07-13T09:54:37;99498.78;;;31.97;47.30
47726;BME280;33483;48.294;16.388;2023-07-13T09:57:18;99493.50;;;32.17;46.55
47726;BME280;33483;48.294;16.388;2023-07-13T09:59:46;99484.16;;;31.59;47.97
47726;BME280;33483;48.294;16.388;2023-07-13T10:04:53;99488.03;;;31.98;46.65
47726;BME280;33483;48.294;16.388;2023-07-13T10:07:22;99493.84;;;32.02;47.71
47726;BME280;33483;48.294;16.388;2023-07-13T10:09:58;99499.09;;;32.41;46.42
47726;BME280;33483;48.294;16.388;2023-07-13T10:12:29;99496.00;;;32.01;46.46
47726;BME280;33483;48.294;16.388;2023-07-13T10:14:58;99502.91;;;31.11;48.79
47726;BME280;33483;48.294;16.388;2023-07-13T10:17:49;99500.13;;;31.39;48.65
47726;BME280;33483;48.294;16.388;2023-07-13T10:20:17;99509.19;;;30.80;48.89
47726;BME280;33483;48.294;16.388;2023-07-13T10:22:59;99504.25;;;29.92;51.81
47726;BME280;33483;48.294;16.388;2023-07-13T10:25:35;99503.13;;;29.17;54.10
47726;BME280;33483;48.294;16.388;2023-07-13T10:28:11;99491.91;;;28.84;57.00
47726;BME280;33483;48.294;16.388;2023-07-13T10:30:41;99500.34;;;28.44;56.39
47726;BME280;33483;48.294;16.388;2023-07-13T10:33:10;99493.81;;;28.05;57.20
47726;BME280;33483;48.294;16.388;2023-07-13T10:35:40;99496.25;;;28.12;57.33
47726;BME280;33483;48.294;16.388;2023-07-13T10:38:13;99496.97;;;27.95;57.15
47726;BME280;33483;48.294;16.388;2023-07-13T10:40:59;99504.63;;;27.91;58.51
47726;BME280;33483;48.294;16.388;2023-07-13T10:43:35;99508.28;;;28.11;57.50
47726;BME280;33483;48.294;16.388;2023-07-13T10:46:04;99502.59;;;29.85;52.49
47726;BME280;33483;48.294;16.388;2023-07-13T10:48:33;99501.25;;;30.31;49.65
47726;BME280;33483;48.294;16.388;2023-07-13T10:51:01;99503.72;;;30.19;49.77
47726;BME280;33483;48.294;16.388;2023-07-13T10:53:31;99490.44;;;30.28;48.72
47726;BME280;33483;48.294;16.388;2023-07-13T10:56:03;99484.03;;;30.76;47.93
47726;BME280;33483;48.294;16.388;2023-07-13T10:58:34;99483.78;;;30.21;48.80
47726;BME280;33483;48.294;16.388;2023-07-13T11:03:29;99476.81;;;30.05;49.62
47726;BME280;33483;48.294;16.388;2023-07-13T11:06:08;99482.56;;;29.42;51.90
47726;BME280;33483;48.294;16.388;2023-07-13T11:13:56;99486.19;;;29.64;52.34
47726;BME280;33483;48.294;16.388;2023-07-13T11:21:30;99491.59;;;28.75;53.85
47726;BME280;33483;48.294;16.388;2023-07-13T11:24:03;99498.47;;;28.88;54.39
47726;BME280;33483;48.294;16.388;2023-07-13T11:29:48;99497.28;;;28.75;52.53
47726;BME280;33483;48.294;16.388;2023-07-13T11:31:56;99498.31;;;28.64;52.53
47726;BME280;33483;48.294;16.388;2023-07-13T11:34:27;99499.69;;;28.63;52.38
47726;BME280;33483;48.294;16.388;2023-07-13T11:36:55;99485.50;;;28.65;52.74
47726;BME280;33483;48.294;16.388;2023-07-13T11:39:34;99493.13;;;28.78;51.42
47726;BME280;33483;48.294;16.388;2023-07-13T11:42:04;99503.66;;;28.74;49.57
47726;BME280;33483;48.294;16.388;2023-07-13T11:44:33;99502.94;;;28.93;50.30
47726;BME280;33483;48.294;16.388;2023-07-13T11:47:11;99501.19;;;29.04;50.29
47726;BME280;33483;48.294;16.388;2023-07-13T11:49:44;99507.25;;;29.33;48.25
47726;BME280;33483;48.294;16.388;2023-07-13T11:52:14;99509.94;;;29.90;47.11
47726;BME280;33483;48.294;16.388;2023-07-13T11:54:56;99508.56;;;30.36;45.74
47726;BME280;33483;48.294;16.388;2023-07-13T11:57:24;99505.56;;;30.32;45.01
47726;BME280;33483;48.294;16.388;2023-07-13T11:59:53;99505.66;;;30.58;44.93
47726;BME280;33483;48.294;16.388;2023-07-13T12:02:31;99495.78;;;30.39;44.98
47726;BME280;33483;48.294;16.388;2023-07-13T12:05:00;99491.91;;;30.07;46.22
47726;BME280;33483;48.294;16.388;2023-07-13T12:07:30;99486.19;;;29.64;47.17
47726;BME280;33483;48.294;16.388;2023-07-13T12:10:18;99490.44;;;29.63;48.33
47726;BME280;33483;48.294;16.388;2023-07-13T12:12:56;99487.38;;;29.57;46.40
47726;BME280;33483;48.294;16.388;2023-07-13T12:15:27;99474.22;;;29.48;48.07
47726;BME280;33483;48.294;16.388;2023-07-13T12:17:56;99468.13;;;29.79;46.92
47726;BME280;33483;48.294;16.388;2023-07-13T12:20:25;99465.75;;;29.71;46.54
47726;BME280;33483;48.294;16.388;2023-07-13T12:22:52;99459.34;;;29.73;46.85
47726;BME280;33483;48.294;16.388;2023-07-13T12:25:20;99462.50;;;29.40;47.77
47726;BME280;33483;48.294;16.388;2023-07-13T12:27:48;99465.75;;;29.52;47.58
47726;BME280;33483;48.294;16.388;2023-07-13T12:30:24;99476.78;;;29.40;47.38
47726;BME280;33483;48.294;16.388;2023-07-13T12:33:00;99468.59;;;29.71;47.83
47726;BME280;33483;48.294;16.388;2023-07-13T12:35:29;99481.19;;;29.64;45.06
47726;BME280;33483;48.294;16.388;2023-07-13T12:37:57;99485.75;;;29.52;45.03
47726;BME280;33483;48.294;16.388;2023-07-13T12:40:32;99488.41;;;29.46;47.18
47726;BME280;33483;48.294;16.388;2023-07-13T12:43:03;99476.47;;;29.10;45.86
47726;BME280;33483;48.294;16.388;2023-07-13T12:45:34;99472.63;;;29.04;45.95
47726;BME280;33483;48.294;16.388;2023-07-13T12:48:10;99464.81;;;29.04;47.59
47726;BME280;33483;48.294;16.388;2023-07-13T12:50:41;99469.50;;;28.76;47.50
47726;BME280;33483;48.294;16.388;2023-07-13T12:53:12;99475.84;;;28.55;48.95
47726;BME280;33483;48.294;16.388;2023-07-13T12:55:44;99472.72;;;28.49;49.40
47726;BME280;33483;48.294;16.388;2023-07-13T12:58:20;99479.81;;;28.48;50.26
47726;BME280;33483;48.294;16.388;2023-07-13T13:00:49;99470.88;;;28.38;49.77
47726;BME280;33483;48.294;16.388;2023-07-13T13:05:58;99455.75;;;29.10;46.88
47726;BME280;33483;48.294;16.388;2023-07-13T13:08:27;99452.16;;;28.90;47.67
47726;BME280;33483;48.294;16.388;2023-07-13T13:10:54;99445.06;;;28.91;46.78
47726;BME280;33483;48.294;16.388;2023-07-13T13:13:23;99455.50;;;29.04;47.78
47726;BME280;33483;48.294;16.388;2023-07-13T13:15:52;99441.75;;;28.98;46.36
47726;BME280;33483;48.294;16.388;2023-07-13T13:18:20;99444.09;;;29.04;47.93
47726;BME280;33483;48.294;16.388;2023-07-13T13:20:49;99439.25;;;29.08;47.40
47726;BME280;33483;48.294;16.388;2023-07-13T13:23:20;99424.28;;;29.08;48.59
47726;BME280;33483;48.294;16.388;2023-07-13T13:25:49;99428.66;;;28.91;49.15
47726;BME280;33483;48.294;16.388;2023-07-13T13:28:17;99427.88;;;28.69;48.30
47726;BME280;33483;48.294;16.388;2023-07-13T13:30:50;99416.03;;;28.76;49.38
47726;BME280;33483;48.294;16.388;2023-07-13T13:33:18;99424.88;;;28.85;49.11